sensor_id;sensor_type;location;lat;lon;timestamp;pressure;altitude;pressure_sealevel;temperature
15709;BMP180;7954;51.914;8.420;2023-04-24T00:01:59;98829.88;;;17.15
15709;BMP180;7954;51.914;8.420;2023-04-24T00:04:27;98825.88;;;17.10
15709;BMP180;7954;51.914;8.420;2023-04-24T00:06:55;98819.66;;;17.22
15709;BMP180;7954;51.914;8.420;2023-04-24T00:09:24;98812.75;;;17.14
15709;BMP180;7954;51.914;8.420;2023-04-24T00:11:54;98817.69;;;17.12
15709;BMP180;7954;51.914;8.420;2023-04-24T00:14:23;98823.38;;;17.03
15709;BMP180;7954;51.914;8.420;2023-04-24T00:16:50;98816.47;;;16.95
15709;BMP180;7954;51.914;8.420;2023-04-24T00:19:19;98821.97;;;16.98
15709;BMP180;7954;51.914;8.420;2023-04-24T00:21:48;98820.31;;;16.98
15709;BMP180;7954;51.914;8.420;2023-04-24T00:24:17;98837.19;;;17.05
15709;BMP180;7954;51.914;8.420;2023-04-24T00:26:45;98824.25;;;17.10
15709;BMP180;7954;51.914;8.420;2023-04-24T00:29:14;98818.47;;;17.04
15709;BMP180;7954;51.914;8.420;2023-04-24T00:31:42;98819.03;;;17.02
15709;BMP180;7954;51.914;8.420;2023-04-24T00:34:10;98821.44;;;16.86
15709;BMP180;7954;51.914;8.420;2023-04-24T00:36:39;98817.78;;;16.91
15709;BMP180;7954;51.914;8.420;2023-04-24T00:39:07;98816.66;;;16.96
15709;BMP180;7954;51.914;8.420;2023-04-24T00:41:35;98814.25;;;17.05
15709;BMP180;7954;51.914;8.420;2023-04-24T00:44:03;98809.88;;;17.04
15709;BMP180;7954;51.914;8.420;2023-04-24T00:46:33;98803.31;;;17.13
15709;BMP180;7954;51.914;8.420;2023-04-24T00:49:02;98813.44;;;17.20
15709;BMP180;7954;51.914;8.420;2023-04-24T00:51:30;98797.25;;;17.19
15709;BMP180;7954;51.914;8.420;2023-04-24T00:53:59;98799.78;;;17.26
15709;BMP180;7954;51.914;8.420;2023-04-24T00:56:27;98797.81;;;17.17
15709;BMP180;7954;51.914;8.420;2023-04-24T00:58:55;98794.88;;;17.21
15709;BMP180;7954;51.914;8.420;2023-04-24T01:01:23;98791.38;;;17.27
15709;BMP180;7954;51.914;8.420;2023-04-24T01:03:52;98798.44;;;17.37
15709;BMP180;7954;51.914;8.420;2023-04-24T01:06:22;98793.69;;;17.39
15709;BMP180;7954;51.914;8.420;2023-04-24T01:08:49;98792.56;;;17.44
15709;BMP180;7954;51.914;8.420;2023-04-24T01:11:17;98786.00;;;17.46
15709;BMP180;7954;51.914;8.420;2023-04-24T01:13:47;98782.72;;;17.47
15709;BMP180;7954;51.914;8.420;2023-04-24T01:16:14;98782.16;;;17.50
15709;BMP180;7954;51.914;8.420;2023-04-24T01:18:43;98786.38;;;17.42
15709;BMP180;7954;51.914;8.420;2023-04-24T01:21:15;98785.34;;;17.34
15709;BMP180;7954;51.914;8.420;2023-04-24T01:23:45;98782.84;;;17.27
15709;BMP180;7954;51.914;8.420;2023-04-24T01:26:16;98785.56;;;17.28
15709;BMP180;7954;51.914;8.420;2023-04-24T01:28:47;98781.94;;;17.19
15709;BMP180;7954;51.914;8.420;2023-04-24T01:31:15;98791.44;;;17.13
15709;BMP180;7954;51.914;8.420;2023-04-24T01:33:44;98783.31;;;17.02
15709;BMP180;7954;51.914;8.420;2023-04-24T01:36:13;98801.91;;;16.94
15709;BMP180;7954;51.914;8.420;2023-04-24T01:38:41;98793.94;;;16.84
15709;BMP180;7954;51.914;8.420;2023-04-24T01:41:11;98806.03;;;16.78
15709;BMP180;7954;51.914;8.420;2023-04-24T01:43:38;98793.47;;;16.73
15709;BMP180;7954;51.914;8.420;2023-04-24T01:46:07;98800.78;;;16.63
15709;BMP180;7954;51.914;8.420;2023-04-24T01:48:35;98807.03;;;16.51
15709;BMP180;7954;51.914;8.420;2023-04-24T01:51:03;98804.69;;;16.38
15709;BMP180;7954;51.914;8.420;2023-04-24T01:53:32;98813.78;;;16.43
15709;BMP180;7954;51.914;8.420;2023-04-24T01:56:00;98801.25;;;16.31
15709;BMP180;7954;51.914;8.420;2023-04-24T01:58:30;98804.69;;;16.38
15709;BMP180;7954;51.914;8.420;2023-04-24T02:00:59;98793.06;;;16.33
15709;BMP180;7954;51.914;8.420;2023-04-24T02:03:27;98791.25;;;16.32
15709;BMP180;7954;51.914;8.420;2023-04-24T02:05:56;98793.78;;;16.32
15709;BMP180;7954;51.914;8.420;2023-04-24T02:08:25;98798.72;;;16.31
15709;BMP180;7954;51.914;8.420;2023-04-24T02:10:53;98792.88;;;16.25
15709;BMP180;7954;51.914;8.420;2023-04-24T02:13:22;98795.03;;;16.22
15709;BMP180;7954;51.914;8.420;2023-04-24T02:15:51;98814.88;;;16.17
15709;BMP180;7954;51.914;8.420;2023-04-24T02:18:19;98795.97;;;16.15
15709;BMP180;7954;51.914;8.420;2023-04-24T02:20:47;98804.53;;;16.16
15709;BMP180;7954;51.914;8.420;2023-04-24T02:23:15;98807.63;;;16.13
15709;BMP180;7954;51.914;8.420;2023-04-24T02:25:43;98799.78;;;16.12
15709;BMP180;7954;51.914;8.420;2023-04-24T02:28:11;98804.31;;;16.14
15709;BMP180;7954;51.914;8.420;2023-04-24T02:30:38;98807.63;;;16.13
15709;BMP180;7954;51.914;8.420;2023-04-24T02:33:08;98809.06;;;16.11
15709;BMP180;7954;51.914;8.420;2023-04-24T02:35:37;98804.69;;;16.10
15709;BMP180;7954;51.914;8.420;2023-04-24T02:38:05;98800.69;;;16.06
15709;BMP180;7954;51.914;8.420;2023-04-24T02:40:33;98812.53;;;16.05
15709;BMP180;7954;51.914;8.420;2023-04-24T02:43:01;98804.34;;;16.01
15709;BMP180;7954;51.914;8.420;2023-04-24T02:45:29;98801.41;;;16.05
15709;BMP180;7954;51.914;8.420;2023-04-24T02:47:57;98808.34;;;16.06
15709;BMP180;7954;51.914;8.420;2023-04-24T02:50:26;98805.63;;;16.11
15709;BMP180;7954;51.914;8.420;2023-04-24T02:52:54;98798.34;;;16.21
15709;BMP180;7954;51.914;8.420;2023-04-24T02:55:22;98796.50;;;16.27
15709;BMP180;7954;51.914;8.420;2023-04-24T02:57:50;98782.50;;;16.37
15709;BMP180;7954;51.914;8.420;2023-04-24T03:00:18;98798.66;;;16.45
15709;BMP180;7954;51.914;8.420;2023-04-24T03:02:46;98798.28;;;16.56
15709;BMP180;7954;51.914;8.420;2023-04-24T03:05:14;98796.44;;;16.55
15709;BMP180;7954;51.914;8.420;2023-04-24T03:07:44;98801.72;;;16.56
15709;BMP180;7954;51.914;8.420;2023-04-24T03:10:12;98796.41;;;16.62
15709;BMP180;7954;51.914;8.420;2023-04-24T03:12:40;98794.56;;;16.68
15709;BMP180;7954;51.914;8.420;2023-04-24T03:15:08;98795.13;;;16.72
15709;BMP180;7954;51.914;8.420;2023-04-24T03:17:37;98790.34;;;16.75
15709;BMP180;7954;51.914;8.420;2023-04-24T03:20:06;98791.78;;;16.80
15709;BMP180;7954;51.914;8.420;2023-04-24T03:22:34;98790.50;;;16.83
15709;BMP180;7954;51.914;8.420;2023-04-24T03:25:04;98791.03;;;16.88
15709;BMP180;7954;51.914;8.420;2023-04-24T03:27:34;98779.78;;;16.79
15709;BMP180;7954;51.914;8.420;2023-04-24T03:30:02;98789.41;;;16.81
15709;BMP180;7954;51.914;8.420;2023-04-24T03:32:30;98786.91;;;16.74
15709;BMP180;7954;51.914;8.420;2023-04-24T03:34:59;98790.03;;;16.65
15709;BMP180;7954;51.914;8.420;2023-04-24T03:37:28;98799.50;;;16.66
15709;BMP180;7954;51.914;8.420;2023-04-24T03:39:56;98790.03;;;16.65
15709;BMP180;7954;51.914;8.420;2023-04-24T03:42:25;98782.38;;;16.65
15709;BMP180;7954;51.914;8.420;2023-04-24T03:44:53;98781.88;;;16.61
15709;BMP180;7954;51.914;8.420;2023-04-24T03:47:21;98787.88;;;16.61
15709;BMP180;7954;51.914;8.420;2023-04-24T03:49:49;98782.78;;;16.61
15709;BMP180;7954;51.914;8.420;2023-04-24T03:52:17;98783.16;;;16.57
15709;BMP180;7954;51.914;8.420;2023-04-24T03:54:45;98783.88;;;16.49
15709;BMP180;7954;51.914;8.420;2023-04-24T03:57:13;98787.00;;;16.47
15709;BMP180;7954;51.914;8.420;2023-04-24T03:59:42;98783.72;;;16.48
15709;BMP180;7954;51.914;8.420;2023-04-24T04:02:11;98789.31;;;16.59
15709;BMP180;7954;51.914;8.420;2023-04-24T04:04:39;98788.63;;;16.53
15709;BMP180;7954;51.914;8.420;2023-04-24T04:07:07;98785.72;;;16.57
15709;BMP180;7954;51.914;8.420;2023-04-24T04:09:35;98790.03;;;16.65
15709;BMP180;7954;51.914;8.420;2023-04-24T04:12:03;98793.47;;;16.73
15709;BMP180;7954;51.914;8.420;2023-04-24T04:14:31;98798.94;;;16.75
15709;BMP180;7954;51.914;8.420;2023-04-24T04:17:01;98796.56;;;16.77
15709;BMP180;7954;51.914;8.420;2023-04-24T04:19:31;98806.22;;;16.73
15709;BMP180;7954;51.914;8.420;2023-04-24T04:21:58;98806.38;;;16.74
15709;BMP180;7954;51.914;8.420;2023-04-24T04:24:29;98799.84;;;16.69
15709;BMP180;7954;51.914;8.420;2023-04-24T04:26:56;98806.22;;;16.73
15709;BMP180;7954;51.914;8.420;2023-04-24T04:29:24;98803.47;;;16.78
15709;BMP180;7954;51.914;8.420;2023-04-24T04:31:52;98801.97;;;16.80
15709;BMP180;7954;51.914;8.420;2023-04-24T04:34:23;98806.91;;;16.85
15709;BMP180;7954;51.914;8.420;2023-04-24T04:36:50;98815.78;;;16.89
15709;BMP180;7954;51.914;8.420;2023-04-24T04:39:19;98835.84;;;16.79
15709;BMP180;7954;51.914;8.420;2023-04-24T04:41:47;98833.75;;;16.61
15709;BMP180;7954;51.914;8.420;2023-04-24T04:44:15;98855.41;;;16.23
15709;BMP180;7954;51.914;8.420;2023-04-24T04:46:43;98861.81;;;16.12
15709;BMP180;7954;51.914;8.420;2023-04-24T04:49:10;98850.53;;;15.83
15709;BMP180;7954;51.914;8.420;2023-04-24T04:51:41;98861.25;;;15.73
15709;BMP180;7954;51.914;8.420;2023-04-24T04:54:09;98866.53;;;15.68
15709;BMP180;7954;51.914;8.420;2023-04-24T04:56:37;98875.59;;;15.59
15709;BMP180;7954;51.914;8.420;2023-04-24T04:59:05;98867.22;;;15.53
15709;BMP180;7954;51.914;8.420;2023-04-24T05:01:33;98860.34;;;15.73
15709;BMP180;7954;51.914;8.420;2023-04-24T05:04:01;98873.59;;;15.77
15709;BMP180;7954;51.914;8.420;2023-04-24T05:06:29;98849.63;;;15.89
15709;BMP180;7954;51.914;8.420;2023-04-24T05:08:59;98850.16;;;16.14
15709;BMP180;7954;51.914;8.420;2023-04-24T05:11:27;98840.13;;;16.23
15709;BMP180;7954;51.914;8.420;2023-04-24T05:13:55;98846.91;;;16.29
15709;BMP180;7954;51.914;8.420;2023-04-24T05:16:23;98842.56;;;16.28
15709;BMP180;7954;51.914;8.420;2023-04-24T05:18:51;98839.25;;;16.29
15709;BMP180;7954;51.914;8.420;2023-04-24T05:21:19;98846.72;;;16.14
15709;BMP180;7954;51.914;8.420;2023-04-24T05:23:47;98849.78;;;16.05
15709;BMP180;7954;51.914;8.420;2023-04-24T05:26:17;98850.88;;;16.20
15709;BMP180;7954;51.914;8.420;2023-04-24T05:28:45;98843.63;;;16.16
15709;BMP180;7954;51.914;8.420;2023-04-24T05:31:13;98847.97;;;16.24
15709;BMP180;7954;51.914;8.420;2023-04-24T05:33:41;98832.13;;;16.55
15709;BMP180;7954;51.914;8.420;2023-04-24T05:36:09;98852.69;;;16.49
15709;BMP180;7954;51.914;8.420;2023-04-24T05:38:37;98847.25;;;16.39
15709;BMP180;7954;51.914;8.420;2023-04-24T05:41:05;98846.91;;;16.43
15709;BMP180;7954;51.914;8.420;2023-04-24T05:43:34;98843.75;;;16.53
15709;BMP180;7954;51.914;8.420;2023-04-24T05:46:02;98852.00;;;16.43
15709;BMP180;7954;51.914;8.420;2023-04-24T05:48:31;98850.28;;;16.65
15709;BMP180;7954;51.914;8.420;2023-04-24T05:50:58;98851.94;;;16.57
15709;BMP180;7954;51.914;8.420;2023-04-24T05:53:28;98850.09;;;16.70
15709;BMP180;7954;51.914;8.420;2023-04-24T05:55:56;98856.47;;;16.67
15709;BMP180;7954;51.914;8.420;2023-04-24T05:58:24;98853.22;;;16.61
15709;BMP180;7954;51.914;8.420;2023-04-24T06:00:53;98853.75;;;16.65
15709;BMP180;7954;51.914;8.420;2023-04-24T06:03:23;98857.06;;;16.57
15709;BMP180;7954;51.914;8.420;2023-04-24T06:05:53;98855.72;;;16.68
15709;BMP180;7954;51.914;8.420;2023-04-24T06:08:21;98857.56;;;16.62
15709;BMP180;7954;51.914;8.420;2023-04-24T06:10:49;98844.66;;;16.67
15709;BMP180;7954;51.914;8.420;2023-04-24T06:13:19;98851.19;;;16.72
15709;BMP180;7954;51.914;8.420;2023-04-24T06:15:47;98850.03;;;16.84
15709;BMP180;7954;51.914;8.420;2023-04-24T06:18:17;98853.53;;;16.77
15709;BMP180;7954;51.914;8.420;2023-04-24T06:20:47;98857.44;;;16.96
15709;BMP180;7954;51.914;8.420;2023-04-24T06:23:14;98864.38;;;16.97
15709;BMP180;7954;51.914;8.420;2023-04-24T06:25:42;98860.63;;;16.80
15709;BMP180;7954;51.914;8.420;2023-04-24T06:28:12;98869.03;;;16.65
15709;BMP180;7954;51.914;8.420;2023-04-24T06:30:40;98865.59;;;16.65
15709;BMP180;7954;51.914;8.420;2023-04-24T06:33:07;98866.44;;;16.79
15709;BMP180;7954;51.914;8.420;2023-04-24T06:35:47;98859.88;;;16.81
15709;BMP180;7954;51.914;8.420;2023-04-24T06:38:15;98871.34;;;16.84
15709;BMP180;7954;51.914;8.420;2023-04-24T06:40:43;98870.09;;;16.81
15709;BMP180;7954;51.914;8.420;2023-04-24T06:43:11;98862.38;;;16.95
15709;BMP180;7954;51.914;8.420;2023-04-24T06:45:41;98869.69;;;16.92
15709;BMP180;7954;51.914;8.420;2023-04-24T06:48:12;98868.50;;;17.11
15709;BMP180;7954;51.914;8.420;2023-04-24T06:50:40;98864.13;;;17.10
15709;BMP180;7954;51.914;8.420;2023-04-24T06:53:10;98867.53;;;16.88
15709;BMP180;7954;51.914;8.420;2023-04-24T06:55:39;98873.72;;;16.83
15709;BMP180;7954;51.914;8.420;2023-04-24T06:58:07;98866.44;;;16.86
15709;BMP180;7954;51.914;8.420;2023-04-24T07:00:35;98870.63;;;16.85
15709;BMP180;7954;51.914;8.420;2023-04-24T07:03:03;98872.97;;;16.91
15709;BMP180;7954;51.914;8.420;2023-04-24T07:05:33;98871.84;;;16.96
15709;BMP180;7954;51.914;8.420;2023-04-24T07:08:02;98867.47;;;17.02
15709;BMP180;7954;51.914;8.420;2023-04-24T07:10:32;98863.03;;;17.15
15709;BMP180;7954;51.914;8.420;2023-04-24T07:13:01;98859.72;;;17.23
15709;BMP180;7954;51.914;8.420;2023-04-24T07:15:29;98873.34;;;17.37
15709;BMP180;7954;51.914;8.420;2023-04-24T07:17:58;98863.75;;;17.28
15709;BMP180;7954;51.914;8.420;2023-04-24T07:20:30;98869.16;;;17.24
15709;BMP180;7954;51.914;8.420;2023-04-24T07:22:58;98860.38;;;17.42
15709;BMP180;7954;51.914;8.420;2023-04-24T07:25:26;98867.41;;;17.16
15709;BMP180;7954;51.914;8.420;2023-04-24T07:27:55;98866.09;;;16.83
15709;BMP180;7954;51.914;8.420;2023-04-24T07:30:23;98876.06;;;16.95
15709;BMP180;7954;51.914;8.420;2023-04-24T07:32:51;98883.00;;;16.89
15709;BMP180;7954;51.914;8.420;2023-04-24T07:35:21;98894.63;;;16.87
15709;BMP180;7954;51.914;8.420;2023-04-24T07:37:49;98885.47;;;17.03
15709;BMP180;7954;51.914;8.420;2023-04-24T07:40:17;98885.03;;;17.28
15709;BMP180;7954;51.914;8.420;2023-04-24T07:42:45;98883.22;;;17.27
15709;BMP180;7954;51.914;8.420;2023-04-24T07:45:16;98894.16;;;17.26
15709;BMP180;7954;51.914;8.420;2023-04-24T07:47:45;98887.69;;;17.43
15709;BMP180;7954;51.914;8.420;2023-04-24T07:50:14;98875.25;;;17.53
15709;BMP180;7954;51.914;8.420;2023-04-24T07:52:42;98889.94;;;17.70
15709;BMP180;7954;51.914;8.420;2023-04-24T07:55:09;98870.69;;;17.80
15709;BMP180;7954;51.914;8.420;2023-04-24T07:57:37;98874.75;;;17.78
15709;BMP180;7954;51.914;8.420;2023-04-24T08:00:06;98879.44;;;17.82
15709;BMP180;7954;51.914;8.420;2023-04-24T08:02:36;98888.09;;;17.69
15709;BMP180;7954;51.914;8.420;2023-04-24T08:05:05;98890.19;;;17.57
15709;BMP180;7954;51.914;8.420;2023-04-24T08:07:33;98911.59;;;17.37
15709;BMP180;7954;51.914;8.420;2023-04-24T08:10:02;98910.00;;;17.31
15709;BMP180;7954;51.914;8.420;2023-04-24T08:12:30;98929.88;;;17.19
15709;BMP180;7954;51.914;8.420;2023-04-24T08:14:58;98909.84;;;17.58
15709;BMP180;7954;51.914;8.420;2023-04-24T08:17:26;98914.06;;;17.87
15709;BMP180;7954;51.914;8.420;2023-04-24T08:19:56;98916.81;;;18.18
15709;BMP180;7954;51.914;8.420;2023-04-24T08:22:28;98912.00;;;18.43
15709;BMP180;7954;51.914;8.420;2023-04-24T08:24:56;98912.03;;;18.21
15709;BMP180;7954;51.914;8.420;2023-04-24T08:27:25;98914.94;;;17.95
15709;BMP180;7954;51.914;8.420;2023-04-24T08:29:53;98908.16;;;17.95
15709;BMP180;7954;51.914;8.420;2023-04-24T08:32:22;98904.91;;;17.89
15709;BMP180;7954;51.914;8.420;2023-04-24T08:34:53;98915.09;;;17.96
15709;BMP180;7954;51.914;8.420;2023-04-24T08:37:25;98911.44;;;17.94
15709;BMP180;7954;51.914;8.420;2023-04-24T08:39:54;98912.28;;;17.79
15709;BMP180;7954;51.914;8.420;2023-04-24T08:42:22;98901.13;;;17.86
15709;BMP180;7954;51.914;8.420;2023-04-24T08:44:50;98901.06;;;17.93
15709;BMP180;7954;51.914;8.420;2023-04-24T08:47:20;98908.84;;;18.01
15709;BMP180;7954;51.914;8.420;2023-04-24T08:49:49;98913.84;;;18.15
15709;BMP180;7954;51.914;8.420;2023-04-24T08:52:18;98911.78;;;18.26
15709;BMP180;7954;51.914;8.420;2023-04-24T08:54:48;98918.44;;;17.88
15709;BMP180;7954;51.914;8.420;2023-04-24T08:57:18;98919.38;;;17.82
15709;BMP180;7954;51.914;8.420;2023-04-24T08:59:46;98907.19;;;18.02
15709;BMP180;7954;51.914;8.420;2023-04-24T09:02:14;98905.34;;;18.07
15709;BMP180;7954;51.914;8.420;2023-04-24T09:04:44;98914.69;;;18.00
15709;BMP180;7954;51.914;8.420;2023-04-24T09:07:15;98916.69;;;17.73
15709;BMP180;7954;51.914;8.420;2023-04-24T09:09:44;98924.13;;;17.49
15709;BMP180;7954;51.914;8.420;2023-04-24T09:12:14;98923.25;;;17.42
15709;BMP180;7954;51.914;8.420;2023-04-24T09:14:41;98917.56;;;17.51
15709;BMP180;7954;51.914;8.420;2023-04-24T09:17:12;98931.19;;;17.59
15709;BMP180;7954;51.914;8.420;2023-04-24T09:19:40;98907.09;;;17.93
15709;BMP180;7954;51.914;8.420;2023-04-24T09:22:09;98910.19;;;18.20
15709;BMP180;7954;51.914;8.420;2023-04-24T09:24:38;98923.13;;;18.44
15709;BMP180;7954;51.914;8.420;2023-04-24T09:27:06;98912.94;;;18.97
15709;BMP180;7954;51.914;8.420;2023-04-24T09:29:38;98919.38;;;18.56
15709;BMP180;7954;51.914;8.420;2023-04-24T09:32:19;98912.19;;;18.45
15709;BMP180;7954;51.914;8.420;2023-04-24T09:34:49;98907.25;;;18.24
15709;BMP180;7954;51.914;8.420;2023-04-24T09:37:27;98916.00;;;17.97
15709;BMP180;7954;51.914;8.420;2023-04-24T09:40:16;98948.00;;;17.86
15709;BMP180;7954;51.914;8.420;2023-04-24T09:42:45;98922.44;;;17.57
15709;BMP180;7954;51.914;8.420;2023-04-24T09:45:15;98934.56;;;17.73
15709;BMP180;7954;51.914;8.420;2023-04-24T09:47:43;98937.59;;;17.48
15709;BMP180;7954;51.914;8.420;2023-04-24T09:50:13;98942.94;;;17.43
15709;BMP180;7954;51.914;8.420;2023-04-24T09:52:43;98955.13;;;17.45
15709;BMP180;7954;51.914;8.420;2023-04-24T09:55:14;98958.31;;;17.15
15709;BMP180;7954;51.914;8.420;2023-04-24T09:57:47;98954.47;;;17.19
15709;BMP180;7954;51.914;8.420;2023-04-24T10:00:33;98948.66;;;17.27
15709;BMP180;7954;51.914;8.420;2023-04-24T10:03:03;98953.63;;;17.54
15709;BMP180;7954;51.914;8.420;2023-04-24T10:05:33;98949.84;;;17.80
15709;BMP180;7954;51.914;8.420;2023-04-24T10:08:05;98956.97;;;17.39
15709;BMP180;7954;51.914;8.420;2023-04-24T10:10:37;98956.34;;;17.06
15709;BMP180;7954;51.914;8.420;2023-04-24T10:13:07;98968.03;;;16.97
15709;BMP180;7954;51.914;8.420;2023-04-24T10:15:36;98973.84;;;17.03
15709;BMP180;7954;51.914;8.420;2023-04-24T10:18:05;98977.78;;;17.29
15709;BMP180;7954;51.914;8.420;2023-04-24T10:20:35;98974.50;;;17.23
15709;BMP180;7954;51.914;8.420;2023-04-24T10:23:03;98981.41;;;17.24
15709;BMP180;7954;51.914;8.420;2023-04-24T10:25:33;98985.75;;;17.38
15709;BMP180;7954;51.914;8.420;2023-04-24T10:28:02;98981.31;;;17.58
15709;BMP180;7954;51.914;8.420;2023-04-24T10:30:32;98981.41;;;17.38
15709;BMP180;7954;51.914;8.420;2023-04-24T10:33:05;98989.41;;;17.40
15709;BMP180;7954;51.914;8.420;2023-04-24T10:35:38;98983.63;;;17.21
15709;BMP180;7954;51.914;8.420;2023-04-24T10:38:11;98996.03;;;17.04
15709;BMP180;7954;51.914;8.420;2023-04-24T10:40:39;99016.09;;;17.08
15709;BMP180;7954;51.914;8.420;2023-04-24T10:43:08;99020.81;;;16.49
15709;BMP180;7954;51.914;8.420;2023-04-24T10:45:39;99025.03;;;16.49
15709;BMP180;7954;51.914;8.420;2023-04-24T10:48:09;99013.75;;;16.54
15709;BMP180;7954;51.914;8.420;2023-04-24T10:50:45;99016.47;;;16.69
15709;BMP180;7954;51.914;8.420;2023-04-24T10:53:15;99017.56;;;16.71
15709;BMP180;7954;51.914;8.420;2023-04-24T10:55:46;99024.47;;;16.51
15709;BMP180;7954;51.914;8.420;2023-04-24T10:58:15;99037.03;;;16.43
15709;BMP180;7954;51.914;8.420;2023-04-24T11:00:48;99036.78;;;16.20
15709;BMP180;7954;51.914;8.420;2023-04-24T11:03:27;99048.78;;;16.21
15709;BMP180;7954;51.914;8.420;2023-04-24T11:05:58;99053.94;;;16.35
15709;BMP180;7954;51.914;8.420;2023-04-24T11:08:32;99066.78;;;16.23
15709;BMP180;7954;51.914;8.420;2023-04-24T11:11:03;99076.38;;;16.05
15709;BMP180;7954;51.914;8.420;2023-04-24T11:14:04;99072.03;;;16.04
15709;BMP180;7954;51.914;8.420;2023-04-24T11:16:42;99079.78;;;15.84
15709;BMP180;7954;51.914;8.420;2023-04-24T11:19:24;99085.69;;;16.11
15709;BMP180;7954;51.914;8.420;2023-04-24T11:21:58;99083.84;;;16.03
15709;BMP180;7954;51.914;8.420;2023-04-24T11:24:35;99092.19;;;16.02
15709;BMP180;7954;51.914;8.420;2023-04-24T11:27:06;99089.03;;;15.84
15709;BMP180;7954;51.914;8.420;2023-04-24T11:29:39;99088.97;;;15.70
15709;BMP180;7954;51.914;8.420;2023-04-24T11:32:19;99103.50;;;15.71
15709;BMP180;7954;51.914;8.420;2023-04-24T11:34:53;99100.19;;;15.65
15709;BMP180;7954;51.914;8.420;2023-04-24T11:37:22;99115.31;;;15.37
15709;BMP180;7954;51.914;8.420;2023-04-24T11:39:53;99105.09;;;15.56
15709;BMP180;7954;51.914;8.420;2023-04-24T11:42:21;99121.50;;;15.39
15709;BMP180;7954;51.914;8.420;2023-04-24T11:44:54;99129.16;;;15.39
15709;BMP180;7954;51.914;8.420;2023-04-24T11:47:31;99134.75;;;15.37
15709;BMP180;7954;51.914;8.420;2023-04-24T11:50:04;99135.56;;;15.23
15709;BMP180;7954;51.914;8.420;2023-04-24T11:52:36;99148.44;;;15.05
15709;BMP180;7954;51.914;8.420;2023-04-24T11:55:06;99149.03;;;15.10
15709;BMP180;7954;51.914;8.420;2023-04-24T11:57:34;99190.13;;;14.62
15709;BMP180;7954;51.914;8.420;2023-04-24T12:00:04;99208.50;;;14.22
15709;BMP180;7954;51.914;8.420;2023-04-24T12:02:33;99216.31;;;13.61
15709;BMP180;7954;51.914;8.420;2023-04-24T12:05:07;99231.88;;;13.27
15709;BMP180;7954;51.914;8.420;2023-04-24T12:07:41;99225.09;;;13.46
15709;BMP180;7954;51.914;8.420;2023-04-24T12:10:10;99233.25;;;13.55
15709;BMP180;7954;51.914;8.420;2023-04-24T12:12:40;99240.31;;;13.46
15709;BMP180;7954;51.914;8.420;2023-04-24T12:15:08;99239.63;;;13.59
15709;BMP180;7954;51.914;8.420;2023-04-24T12:17:41;99255.81;;;13.84
15709;BMP180;7954;51.914;8.420;2023-04-24T12:20:12;99254.56;;;13.75
15709;BMP180;7954;51.914;8.420;2023-04-24T12:22:44;99245.03;;;13.92
15709;BMP180;7954;51.914;8.420;2023-04-24T12:25:15;99256.22;;;13.87
15709;BMP180;7954;51.914;8.420;2023-04-24T12:27:45;99259.38;;;14.04
15709;BMP180;7954;51.914;8.420;2023-04-24T12:30:16;99269.06;;;14.19
15709;BMP180;7954;51.914;8.420;2023-04-24T12:32:47;99266.19;;;14.23
15709;BMP180;7954;51.914;8.420;2023-04-24T12:35:20;99262.72;;;14.35
15709;BMP180;7954;51.914;8.420;2023-04-24T12:37:50;99263.50;;;14.53
15709;BMP180;7954;51.914;8.420;2023-04-24T12:40:25;99263.00;;;14.43
15709;BMP180;7954;51.914;8.420;2023-04-24T12:42:55;99275.91;;;14.45
15709;BMP180;7954;51.914;8.420;2023-04-24T12:45:23;99273.47;;;14.39
15709;BMP180;7954;51.914;8.420;2023-04-24T12:47:53;99274.44;;;14.72
15709;BMP180;7954;51.914;8.420;2023-04-24T12:50:23;99270.16;;;14.97
15709;BMP180;7954;51.914;8.420;2023-04-24T12:52:51;99276.66;;;14.76
15709;BMP180;7954;51.914;8.420;2023-04-24T12:55:19;99278.19;;;14.68
15709;BMP180;7954;51.914;8.420;2023-04-24T12:57:47;99281.75;;;14.63
15709;BMP180;7954;51.914;8.420;2023-04-24T13:00:15;99293.91;;;14.34
15709;BMP180;7954;51.914;8.420;2023-04-24T13:02:45;99308.53;;;14.17
15709;BMP180;7954;51.914;8.420;2023-04-24T13:05:15;99300.06;;;14.48
15709;BMP180;7954;51.914;8.420;2023-04-24T13:07:45;99315.41;;;14.06
15709;BMP180;7954;51.914;8.420;2023-04-24T13:10:14;99324.28;;;14.27
15709;BMP180;7954;51.914;8.420;2023-04-24T13:12:42;99328.22;;;14.25
15709;BMP180;7954;51.914;8.420;2023-04-24T13:15:12;99310.38;;;14.30
15709;BMP180;7954;51.914;8.420;2023-04-24T13:17:40;99322.25;;;14.24
15709;BMP180;7954;51.914;8.420;2023-04-24T13:20:10;99328.72;;;14.10
15709;BMP180;7954;51.914;8.420;2023-04-24T13:22:39;99330.25;;;14.27
15709;BMP180;7954;51.914;8.420;2023-04-24T13:25:09;99337.06;;;14.59
15709;BMP180;7954;51.914;8.420;2023-04-24T13:27:38;99345.56;;;14.72
15709;BMP180;7954;51.914;8.420;2023-04-24T13:30:07;99337.47;;;14.37
15709;BMP180;7954;51.914;8.420;2023-04-24T13:32:37;99330.50;;;14.85
15709;BMP180;7954;51.914;8.420;2023-04-24T13:35:05;99338.56;;;14.76
15709;BMP180;7954;51.914;8.420;2023-04-24T13:37:33;99325.38;;;14.66
15709;BMP180;7954;51.914;8.420;2023-04-24T13:40:01;99347.63;;;14.37
15709;BMP180;7954;51.914;8.420;2023-04-24T13:42:32;99337.84;;;14.40
15709;BMP180;7954;51.914;8.420;2023-04-24T13:45:00;99346.00;;;14.37
15709;BMP180;7954;51.914;8.420;2023-04-24T13:47:48;99339.09;;;14.24
15709;BMP180;7954;51.914;8.420;2023-04-24T13:50:17;99336.84;;;14.45
15709;BMP180;7954;51.914;8.420;2023-04-24T13:52:45;99340.31;;;14.33
15709;BMP180;7954;51.914;8.420;2023-04-24T13:55:13;99338.09;;;14.29
15709;BMP180;7954;51.914;8.420;2023-04-24T13:57:43;99337.66;;;14.13
15709;BMP180;7954;51.914;8.420;2023-04-24T14:00:11;99349.34;;;14.18
15709;BMP180;7954;51.914;8.420;2023-04-24T14:02:39;99343.88;;;14.15
15709;BMP180;7954;51.914;8.420;2023-04-24T14:05:08;99354.97;;;13.98
15709;BMP180;7954;51.914;8.420;2023-04-24T14:07:37;99349.66;;;13.72
15709;BMP180;7954;51.914;8.420;2023-04-24T14:10:06;99358.13;;;13.60
15709;BMP180;7954;51.914;8.420;2023-04-24T14:12:34;99354.94;;;13.73
15709;BMP180;7954;51.914;8.420;2023-04-24T14:15:04;99338.91;;;13.80
15709;BMP180;7954;51.914;8.420;2023-04-24T14:17:32;99349.78;;;13.91
15709;BMP180;7954;51.914;8.420;2023-04-24T14:20:00;99356.38;;;14.14
15709;BMP180;7954;51.914;8.420;2023-04-24T14:22:30;99352.41;;;14.28
15709;BMP180;7954;51.914;8.420;2023-04-24T14:24:58;99365.91;;;14.22
15709;BMP180;7954;51.914;8.420;2023-04-24T14:27:26;99368.75;;;14.18
15709;BMP180;7954;51.914;8.420;2023-04-24T14:29:54;99371.28;;;14.18
15709;BMP180;7954;51.914;8.420;2023-04-24T14:32:23;99371.88;;;14.22
15709;BMP180;7954;51.914;8.420;2023-04-24T14:34:52;99377.59;;;14.27